sensor_id;sensor_type;location;lat;lon;timestamp;pressure;altitude;pressure_sealevel;temperature;humidity
44457;BME280;30159;49.316;8.558;2023-03-23T00:00:00;99670.44;;;15.05;71.88
44457;BME280;30159;49.316;8.558;2023-03-23T00:02:27;99704.50;;;15.32;72.15
44457;BME280;30159;49.316;8.558;2023-03-23T00:04:55;99677.22;;;15.20;71.88
44457;BME280;30159;49.316;8.558;2023-03-23T00:07:22;99694.53;;;15.36;71.76
44457;BME280;30159;49.316;8.558;2023-03-23T00:09:54;99693.94;;;15.30;72.20
44457;BME280;30159;49.316;8.558;2023-03-23T00:12:22;99690.09;;;15.31;72.72
44457;BME280;30159;49.316;8.558;2023-03-23T00:14:58;99639.41;;;15.06;71.97
44457;BME280;30159;49.316;8.558;2023-03-23T00:17:26;99680.84;;;15.32;72.01
44457;BME280;30159;49.316;8.558;2023-03-23T00:19:52;99686.75;;;15.34;71.93
44457;BME280;30159;49.316;8.558;2023-03-23T00:22:19;99674.25;;;15.33;71.90
44457;BME280;30159;49.316;8.558;2023-03-23T00:24:46;99670.63;;;15.29;71.86
44457;BME280;30159;49.316;8.558;2023-03-23T00:27:17;99637.06;;;15.04;71.74
44457;BME280;30159;49.316;8.558;2023-03-23T00:29:44;99672.69;;;15.32;72.11
44457;BME280;30159;49.316;8.558;2023-03-23T00:32:12;99678.31;;;15.27;72.09
44457;BME280;30159;49.316;8.558;2023-03-23T00:34:40;99669.03;;;15.28;72.08
44457;BME280;30159;49.316;8.558;2023-03-23T00:37:08;99666.97;;;15.25;72.19
44457;BME280;30159;49.316;8.558;2023-03-23T00:39:35;99672.59;;;15.20;72.09
44457;BME280;30159;49.316;8.558;2023-03-23T00:42:04;99670.22;;;15.18;71.83
44457;BME280;30159;49.316;8.558;2023-03-23T00:44:33;99671.00;;;15.19;71.95
44457;BME280;30159;49.316;8.558;2023-03-23T00:47:02;99668.28;;;15.19;72.19
44457;BME280;30159;49.316;8.558;2023-03-23T00:49:28;99663.97;;;15.18;72.15
44457;BME280;30159;49.316;8.558;2023-03-23T00:51:57;99671.78;;;15.20;72.09
44457;BME280;30159;49.316;8.558;2023-03-23T00:54:24;99665.47;;;15.07;71.92
44457;BME280;30159;49.316;8.558;2023-03-23T00:56:51;99678.03;;;15.20;72.25
44457;BME280;30159;49.316;8.558;2023-03-23T00:59:18;99684.38;;;15.24;72.05
44457;BME280;30159;49.316;8.558;2023-03-23T01:01:47;99682.50;;;15.25;72.28
44457;BME280;30159;49.316;8.558;2023-03-23T01:04:13;99681.50;;;15.29;72.13
44457;BME280;30159;49.316;8.558;2023-03-23T01:06:42;99674.63;;;15.32;72.50
44457;BME280;30159;49.316;8.558;2023-03-23T01:09:10;99678.31;;;15.27;72.36
44457;BME280;30159;49.316;8.558;2023-03-23T01:11:40;99667.16;;;15.20;72.33
44457;BME280;30159;49.316;8.558;2023-03-23T01:14:06;99662.22;;;15.22;72.23
44457;BME280;30159;49.316;8.558;2023-03-23T01:16:33;99667.16;;;15.20;72.03
44457;BME280;30159;49.316;8.558;2023-03-23T01:19:01;99656.03;;;15.13;71.97
44457;BME280;30159;49.316;8.558;2023-03-23T01:21:28;99661.81;;;15.03;72.59
44457;BME280;30159;49.316;8.558;2023-03-23T01:23:54;99653.19;;;15.01;72.50
44457;BME280;30159;49.316;8.558;2023-03-23T01:26:26;99654.53;;;14.94;72.90
44457;BME280;30159;49.316;8.558;2023-03-23T01:28:53;99650.53;;;14.92;72.82
44457;BME280;30159;49.316;8.558;2023-03-23T01:31:21;99647.84;;;14.83;72.76
44457;BME280;30159;49.316;8.558;2023-03-23T01:33:48;99637.50;;;14.77;72.90
44457;BME280;30159;49.316;8.558;2023-03-23T01:36:20;99641.63;;;14.83;72.78
44457;BME280;30159;49.316;8.558;2023-03-23T01:38:47;99631.38;;;14.88;73.35
44457;BME280;30159;49.316;8.558;2023-03-23T01:41:16;99617.53;;;14.81;73.32
44457;BME280;30159;49.316;8.558;2023-03-23T01:44:01;99636.34;;;14.86;72.66
44457;BME280;30159;49.316;8.558;2023-03-23T01:46:30;99635.06;;;14.84;73.42
44457;BME280;30159;49.316;8.558;2023-03-23T01:49:01;99633.28;;;14.96;73.34
44457;BME280;30159;49.316;8.558;2023-03-23T01:51:35;99631.47;;;15.01;72.97
44457;BME280;30159;49.316;8.558;2023-03-23T01:54:04;99634.38;;;14.95;73.46
44457;BME280;30159;49.316;8.558;2023-03-23T01:56:36;99625.91;;;14.97;73.24
44457;BME280;30159;49.316;8.558;2023-03-23T01:59:06;99619.03;;;15.00;73.43
44457;BME280;30159;49.316;8.558;2023-03-23T02:01:34;99625.75;;;14.93;73.77
44457;BME280;30159;49.316;8.558;2023-03-23T02:04:04;99615.69;;;14.94;73.84
44457;BME280;30159;49.316;8.558;2023-03-23T02:06:32;99603.53;;;15.00;73.14
44457;BME280;30159;49.316;8.558;2023-03-23T02:08:59;99594.13;;;14.98;73.34
44457;BME280;30159;49.316;8.558;2023-03-23T02:11:26;99589.19;;;14.91;74.30
44457;BME280;30159;49.316;8.558;2023-03-23T02:13:52;99573.69;;;14.91;74.12
44457;BME280;30159;49.316;8.558;2023-03-23T02:16:27;99566.25;;;14.80;74.49
44457;BME280;30159;49.316;8.558;2023-03-23T02:19:07;99583.88;;;14.73;74.42
44457;BME280;30159;49.316;8.558;2023-03-23T02:21:58;99585.16;;;14.67;74.30
44457;BME280;30159;49.316;8.558;2023-03-23T02:24:51;99590.44;;;14.64;74.86
44457;BME280;30159;49.316;8.558;2023-03-23T02:27:35;99587.41;;;14.65;75.22
44457;BME280;30159;49.316;8.558;2023-03-23T02:30:13;99585.47;;;14.66;75.34
44457;BME280;30159;49.316;8.558;2023-03-23T02:33:09;99593.31;;;14.67;75.38
44457;BME280;30159;49.316;8.558;2023-03-23T02:35:39;99595.41;;;14.53;75.68
44457;BME280;30159;49.316;8.558;2023-03-23T02:38:09;99519.59;;;14.18;76.04
44457;BME280;30159;49.316;8.558;2023-03-23T02:40:42;99594.94;;;14.60;75.61
44457;BME280;30159;49.316;8.558;2023-03-23T02:43:13;99581.03;;;14.61;76.47
44457;BME280;30159;49.316;8.558;2023-03-23T02:45:42;99574.97;;;14.64;76.47
44457;BME280;30159;49.316;8.558;2023-03-23T02:48:13;99568.78;;;14.46;76.10
44457;BME280;30159;49.316;8.558;2023-03-23T02:50:42;99574.59;;;14.36;76.60
44457;BME280;30159;49.316;8.558;2023-03-23T02:53:11;99529.16;;;14.24;76.36
44457;BME280;30159;49.316;8.558;2023-03-23T02:55:41;99555.63;;;14.66;77.09
44457;BME280;30159;49.316;8.558;2023-03-23T02:58:09;99570.34;;;14.65;77.94
44457;BME280;30159;49.316;8.558;2023-03-23T03:00:38;99566.00;;;14.64;77.30
44457;BME280;30159;49.316;8.558;2023-03-23T03:03:07;99589.00;;;14.66;76.72
44457;BME280;30159;49.316;8.558;2023-03-23T03:05:42;99567.34;;;14.49;77.35
44457;BME280;30159;49.316;8.558;2023-03-23T03:08:16;99564.34;;;14.33;78.07
44457;BME280;30159;49.316;8.558;2023-03-23T03:10:50;99569.84;;;14.16;78.76
44457;BME280;30159;49.316;8.558;2023-03-23T03:13:25;99569.50;;;14.26;79.24
44457;BME280;30159;49.316;8.558;2023-03-23T03:16:00;99566.44;;;14.36;78.14
44457;BME280;30159;49.316;8.558;2023-03-23T03:18:30;99496.53;;;14.03;77.51
44457;BME280;30159;49.316;8.558;2023-03-23T03:21:03;99567.66;;;14.56;76.92
44457;BME280;30159;49.316;8.558;2023-03-23T03:23:32;99571.00;;;14.62;76.80
44457;BME280;30159;49.316;8.558;2023-03-23T03:26:02;99574.78;;;14.69;77.13
44457;BME280;30159;49.316;8.558;2023-03-23T03:28:32;99554.31;;;14.72;77.12
44457;BME280;30159;49.316;8.558;2023-03-23T03:31:01;99558.31;;;14.74;77.46
44457;BME280;30159;49.316;8.558;2023-03-23T03:33:30;99564.25;;;14.68;76.76
44457;BME280;30159;49.316;8.558;2023-03-23T03:36:01;99564.31;;;14.59;77.97
44457;BME280;30159;49.316;8.558;2023-03-23T03:38:29;99569.66;;;14.68;77.69
44457;BME280;30159;49.316;8.558;2023-03-23T03:40:56;99560.78;;;14.59;77.50
44457;BME280;30159;49.316;8.558;2023-03-23T03:43:23;99570.19;;;14.61;79.02
44457;BME280;30159;49.316;8.558;2023-03-23T03:45:49;99585.06;;;14.55;79.50
44457;BME280;30159;49.316;8.558;2023-03-23T03:48:16;99584.72;;;14.57;79.21
44457;BME280;30159;49.316;8.558;2023-03-23T03:50:42;99576.13;;;14.54;78.83
44457;BME280;30159;49.316;8.558;2023-03-23T03:53:10;99567.19;;;14.54;79.87
44457;BME280;30159;49.316;8.558;2023-03-23T03:55:38;99568.28;;;14.62;79.12
44457;BME280;30159;49.316;8.558;2023-03-23T03:58:10;99565.88;;;14.60;78.74
44457;BME280;30159;49.316;8.558;2023-03-23T04:00:38;99559.47;;;14.65;79.03
44457;BME280;30159;49.316;8.558;2023-03-23T04:03:05;99553.72;;;14.66;78.94
44457;BME280;30159;49.316;8.558;2023-03-23T04:05:32;99551.00;;;14.66;78.30
44457;BME280;30159;49.316;8.558;2023-03-23T04:07:59;99553.19;;;14.73;79.35
44457;BME280;30159;49.316;8.558;2023-03-23T04:10:30;99553.38;;;14.68;78.78
44457;BME280;30159;49.316;8.558;2023-03-23T04:12:57;99567.09;;;14.71;78.55
44457;BME280;30159;49.316;8.558;2023-03-23T04:15:24;99561.50;;;14.77;78.98
44457;BME280;30159;49.316;8.558;2023-03-23T04:17:51;99576.84;;;14.72;79.37
44457;BME280;30159;49.316;8.558;2023-03-23T04:20:18;99575.38;;;14.75;80.38
44457;BME280;30159;49.316;8.558;2023-03-23T04:22:45;99525.84;;;14.48;78.29
44457;BME280;30159;49.316;8.558;2023-03-23T04:25:15;99586.53;;;14.82;79.29
44457;BME280;30159;49.316;8.558;2023-03-23T04:27:44;99594.34;;;14.84;78.90
44457;BME280;30159;49.316;8.558;2023-03-23T04:30:12;99582.50;;;14.88;78.74
44457;BME280;30159;49.316;8.558;2023-03-23T04:32:39;99586.16;;;14.92;78.68
44457;BME280;30159;49.316;8.558;2023-03-23T04:35:08;99586.78;;;14.89;78.99
44457;BME280;30159;49.316;8.558;2023-03-23T04:37:34;99596.41;;;14.87;78.93
44457;BME280;30159;49.316;8.558;2023-03-23T04:40:02;99581.75;;;14.79;79.26
44457;BME280;30159;49.316;8.558;2023-03-23T04:42:35;99597.38;;;14.82;79.35
44457;BME280;30159;49.316;8.558;2023-03-23T04:45:05;99594.16;;;14.89;79.09
44457;BME280;30159;49.316;8.558;2023-03-23T04:47:35;99601.81;;;14.87;78.86
44457;BME280;30159;49.316;8.558;2023-03-23T04:50:07;99598.41;;;14.69;80.17
44457;BME280;30159;49.316;8.558;2023-03-23T04:52:34;99605.41;;;14.79;81.92
44457;BME280;30159;49.316;8.558;2023-03-23T04:55:03;99611.16;;;14.77;83.92
44457;BME280;30159;49.316;8.558;2023-03-23T04:57:30;99616.91;;;14.75;85.35
44457;BME280;30159;49.316;8.558;2023-03-23T04:59:57;99620.13;;;14.69;87.53
44457;BME280;30159;49.316;8.558;2023-03-23T05:02:25;99621.44;;;14.63;90.43
44457;BME280;30159;49.316;8.558;2023-03-23T05:04:55;99619.06;;;14.52;91.03
44457;BME280;30159;49.316;8.558;2023-03-23T05:07:22;99609.19;;;14.39;92.97
44457;BME280;30159;49.316;8.558;2023-03-23T05:09:49;99622.09;;;14.42;92.86
44457;BME280;30159;49.316;8.558;2023-03-23T05:12:16;99622.09;;;14.42;95.39
44457;BME280;30159;49.316;8.558;2023-03-23T05:14:42;99626.41;;;14.43;95.98
44457;BME280;30159;49.316;8.558;2023-03-23T05:17:09;99623.41;;;14.36;94.12
44457;BME280;30159;49.316;8.558;2023-03-23T05:19:37;99619.88;;;14.44;93.45
44457;BME280;30159;49.316;8.558;2023-03-23T05:22:06;99632.16;;;14.50;93.78
44457;BME280;30159;49.316;8.558;2023-03-23T05:24:32;99621.47;;;14.45;95.33
44457;BME280;30159;49.316;8.558;2023-03-23T05:26:59;99632.47;;;14.49;95.93
44457;BME280;30159;49.316;8.558;2023-03-23T05:29:27;99580.53;;;14.21;94.66
44457;BME280;30159;49.316;8.558;2023-03-23T05:31:55;99627.50;;;14.51;94.84
44457;BME280;30159;49.316;8.558;2023-03-23T05:34:25;99624.50;;;14.44;93.36
44457;BME280;30159;49.316;8.558;2023-03-23T05:36:53;99630.22;;;14.60;94.83
44457;BME280;30159;49.316;8.558;2023-03-23T05:39:20;99623.66;;;14.52;94.31
44457;BME280;30159;49.316;8.558;2023-03-23T05:41:47;99634.41;;;14.57;95.00
44457;BME280;30159;49.316;8.558;2023-03-23T05:44:13;99560.47;;;14.04;89.54
44457;BME280;30159;49.316;8.558;2023-03-23T05:46:40;99631.00;;;14.51;90.47
44457;BME280;30159;49.316;8.558;2023-03-23T05:49:07;99624.19;;;14.45;88.35
44457;BME280;30159;49.316;8.558;2023-03-23T05:51:34;99622.28;;;14.54;89.51
44457;BME280;30159;49.316;8.558;2023-03-23T05:54:03;99628.78;;;14.53;87.54
44457;BME280;30159;49.316;8.558;2023-03-23T05:56:29;99629.09;;;14.61;87.07
44457;BME280;30159;49.316;8.558;2023-03-23T05:58:56;99634.03;;;14.67;87.09
44457;BME280;30159;49.316;8.558;2023-03-23T06:01:23;99630.84;;;14.65;86.77
44457;BME280;30159;49.316;8.558;2023-03-23T06:03:50;99637.53;;;14.68;86.34
44457;BME280;30159;49.316;8.558;2023-03-23T06:06:19;99648.19;;;14.73;87.62
44457;BME280;30159;49.316;8.558;2023-03-23T06:08:46;99649.53;;;14.67;86.23
44457;BME280;30159;49.316;8.558;2023-03-23T06:11:15;99644.72;;;14.64;86.49
44457;BME280;30159;49.316;8.558;2023-03-23T06:13:41;99655.25;;;14.74;86.64
44457;BME280;30159;49.316;8.558;2023-03-23T06:16:08;99655.53;;;14.81;88.02
44457;BME280;30159;49.316;8.558;2023-03-23T06:18:34;99665.09;;;14.87;85.33
44457;BME280;30159;49.316;8.558;2023-03-23T06:21:02;99659.47;;;14.92;85.41
44457;BME280;30159;49.316;8.558;2023-03-23T06:23:28;99661.34;;;15.01;86.42
44457;BME280;30159;49.316;8.558;2023-03-23T06:25:57;99665.00;;;15.05;85.77
44457;BME280;30159;49.316;8.558;2023-03-23T06:28:25;99668.19;;;15.07;85.11
44457;BME280;30159;49.316;8.558;2023-03-23T06:30:52;99665.44;;;15.15;84.63
44457;BME280;30159;49.316;8.558;2023-03-23T06:33:19;99666.81;;;15.22;84.73
44457;BME280;30159;49.316;8.558;2023-03-23T06:35:45;99661.28;;;15.18;85.42
44457;BME280;30159;49.316;8.558;2023-03-23T06:38:13;99667.53;;;15.10;84.39
44457;BME280;30159;49.316;8.558;2023-03-23T06:40:41;99516.13;;;14.09;83.08
44457;BME280;30159;49.316;8.558;2023-03-23T06:43:11;99662.38;;;15.17;85.25
44457;BME280;30159;49.316;8.558;2023-03-23T06:45:39;99654.69;;;15.19;83.24
44457;BME280;30159;49.316;8.558;2023-03-23T06:48:06;99636.97;;;14.92;81.63
44457;BME280;30159;49.316;8.558;2023-03-23T06:50:32;99591.38;;;14.68;82.18
44457;BME280;30159;49.316;8.558;2023-03-23T06:52:59;99634.25;;;14.92;82.87
44457;BME280;30159;49.316;8.558;2023-03-23T06:55:26;99681.22;;;15.22;81.70
44457;BME280;30159;49.316;8.558;2023-03-23T06:57:52;99690.69;;;15.16;80.74
44457;BME280;30159;49.316;8.558;2023-03-23T07:00:19;99687.47;;;15.14;81.83
44457;BME280;30159;49.316;8.558;2023-03-23T07:02:47;99682.66;;;15.20;82.28
44457;BME280;30159;49.316;8.558;2023-03-23T07:05:14;99694.81;;;15.22;81.24
44457;BME280;30159;49.316;8.558;2023-03-23T07:07:41;99657.53;;;15.02;81.03
44457;BME280;30159;49.316;8.558;2023-03-23T07:10:09;99697.13;;;15.32;80.40
44457;BME280;30159;49.316;8.558;2023-03-23T07:12:36;99697.41;;;15.39;80.11
44457;BME280;30159;49.316;8.558;2023-03-23T07:15:03;99702.56;;;15.32;79.97
44457;BME280;30159;49.316;8.558;2023-03-23T07:17:30;99719.16;;;15.39;81.12
44457;BME280;30159;49.316;8.558;2023-03-23T07:19:58;99725.38;;;15.40;81.52
44457;BME280;30159;49.316;8.558;2023-03-23T07:22:25;99739.16;;;15.35;83.77
44457;BME280;30159;49.316;8.558;2023-03-23T07:24:51;99741.28;;;15.29;83.42
44457;BME280;30159;49.316;8.558;2023-03-23T07:27:18;99730.84;;;15.31;83.52
44457;BME280;30159;49.316;8.558;2023-03-23T07:29:44;99739.00;;;15.31;83.27
44457;BME280;30159;49.316;8.558;2023-03-23T07:32:11;99729.75;;;15.32;83.28
44457;BME280;30159;49.316;8.558;2023-03-23T07:34:38;99739.66;;;15.28;83.32
44457;BME280;30159;49.316;8.558;2023-03-23T07:37:07;99741.91;;;15.26;83.49
44457;BME280;30159;49.316;8.558;2023-03-23T07:39:33;99744.44;;;15.31;83.58
44457;BME280;30159;49.316;8.558;2023-03-23T07:42:00;99752.94;;;15.30;83.69
44457;BME280;30159;49.316;8.558;2023-03-23T07:44:27;99741.00;;;15.22;83.58
44457;BME280;30159;49.316;8.558;2023-03-23T07:46:53;99688.75;;;14.78;84.30
44457;BME280;30159;49.316;8.558;2023-03-23T07:49:20;99755.03;;;15.24;84.77
44457;BME280;30159;49.316;8.558;2023-03-23T07:51:46;99719.41;;;14.87;85.26
44457;BME280;30159;49.316;8.558;2023-03-23T07:54:15;99773.22;;;15.32;85.92
44457;BME280;30159;49.316;8.558;2023-03-23T07:56:41;99767.41;;;15.43;85.80
44457;BME280;30159;49.316;8.558;2023-03-23T07:59:10;99769.59;;;15.58;85.31
44457;BME280;30159;49.316;8.558;2023-03-23T08:01:37;99735.28;;;15.45;84.77
44457;BME280;30159;49.316;8.558;2023-03-23T08:04:04;99771.50;;;15.87;84.74
44457;BME280;30159;49.316;8.558;2023-03-23T08:06:32;99770.88;;;16.11;84.09
44457;BME280;30159;49.316;8.558;2023-03-23T08:08:59;99761.31;;;16.05;81.86
44457;BME280;30159;49.316;8.558;2023-03-23T08:11:33;99767.75;;;16.21;83.44
44457;BME280;30159;49.316;8.558;2023-03-23T08:14:00;99753.66;;;16.40;82.54
44457;BME280;30159;49.316;8.558;2023-03-23T08:16:27;99739.66;;;16.30;80.76
44457;BME280;30159;49.316;8.558;2023-03-23T08:18:54;99781.94;;;16.48;81.67
44457;BME280;30159;49.316;8.558;2023-03-23T08:21:22;99781.06;;;16.35;80.30
44457;BME280;30159;49.316;8.558;2023-03-23T08:23:48;99767.94;;;16.16;81.62
44457;BME280;30159;49.316;8.558;2023-03-23T08:26:15;99780.66;;;16.25;82.40
44457;BME280;30159;49.316;8.558;2023-03-23T08:28:44;99790.50;;;16.17;83.39
44457;BME280;30159;49.316;8.558;2023-03-23T08:31:12;99772.91;;;15.93;83.16
44457;BME280;30159;49.316;8.558;2023-03-23T08:33:40;99786.91;;;15.83;83.22
44457;BME280;30159;49.316;8.558;2023-03-23T08:36:07;99789.94;;;15.82;84.17
44457;BME280;30159;49.316;8.558;2023-03-23T08:38:35;99797.34;;;15.72;83.97
44457;BME280;30159;49.316;8.558;2023-03-23T08:41:05;99775.44;;;15.69;85.09
44457;BME280;30159;49.316;8.558;2023-03-23T08:43:33;99804.84;;;16.05;84.02
44457;BME280;30159;49.316;8.558;2023-03-23T08:46:01;99763.50;;;15.91;83.98
44457;BME280;30159;49.316;8.558;2023-03-23T08:48:32;99797.94;;;16.29;83.55
44457;BME280;30159;49.316;8.558;2023-03-23T08:51:00;99801.91;;;16.31;83.28
44457;BME280;30159;49.316;8.558;2023-03-23T08:53:27;99794.75;;;16.27;82.51
44457;BME280;30159;49.316;8.558;2023-03-23T08:55:55;99802.06;;;16.35;84.11
44457;BME280;30159;49.316;8.558;2023-03-23T08:58:22;99800.78;;;16.53;84.02
44457;BME280;30159;49.316;8.558;2023-03-23T09:00:49;99798.81;;;16.75;83.50
44457;BME280;30159;49.316;8.558;2023-03-23T09:03:17;99813.13;;;17.05;81.94
44457;BME280;30159;49.316;8.558;2023-03-23T09:05:43;99804.41;;;17.12;81.53
44457;BME280;30159;49.316;8.558;2023-03-23T09:08:11;99816.41;;;16.98;79.67
44457;BME280;30159;49.316;8.558;2023-03-23T09:10:38;99814.09;;;16.88;80.27
44457;BME280;30159;49.316;8.558;2023-03-23T09:13:05;99734.63;;;16.19;81.96
44457;BME280;30159;49.316;8.558;2023-03-23T09:15:33;99785.84;;;16.38;84.30
44457;BME280;30159;49.316;8.558;2023-03-23T09:17:59;99816.38;;;16.86;84.04
44457;BME280;30159;49.316;8.558;2023-03-23T09:20:29;99778.63;;;16.21;85.38
44457;BME280;30159;49.316;8.558;2023-03-23T09:22:56;99671.72;;;15.58;87.65
44457;BME280;30159;49.316;8.558;2023-03-23T09:25:25;99831.25;;;16.68;87.16
44457;BME280;30159;49.316;8.558;2023-03-23T09:27:55;99827.13;;;16.61;87.52
44457;BME280;30159;49.316;8.558;2023-03-23T09:30:23;99820.56;;;16.62;88.44
44457;BME280;30159;49.316;8.558;2023-03-23T09:32:51;99829.47;;;16.72;86.51
44457;BME280;30159;49.316;8.558;2023-03-23T09:35:18;99843.16;;;16.84;86.73
44457;BME280;30159;49.316;8.558;2023-03-23T09:37:49;99831.66;;;16.57;85.74
44457;BME280;30159;49.316;8.558;2023-03-23T09:40:18;99851.63;;;16.40;85.56
44457;BME280;30159;49.316;8.558;2023-03-23T09:45:49;99848.84;;;16.07;87.03
44457;BME280;30159;49.316;8.558;2023-03-23T09:48:36;99849.69;;;16.20;86.58
44457;BME280;30159;49.316;8.558;2023-03-23T09:51:11;99824.81;;;16.09;86.33
44457;BME280;30159;49.316;8.558;2023-03-23T09:53:42;99852.03;;;16.30;85.56
44457;BME280;30159;49.316;8.558;2023-03-23T09:56:13;99851.72;;;16.32;85.85
44457;BME280;30159;49.316;8.558;2023-03-23T09:58:46;99858.22;;;16.39;84.86
44457;BME280;30159;49.316;8.558;2023-03-23T10:01:18;99854.97;;;16.67;84.67
44457;BME280;30159;49.316;8.558;2023-03-23T10:03:47;99856.63;;;16.80;86.81
44457;BME280;30159;49.316;8.558;2023-03-23T10:06:16;99853.03;;;16.89;85.48
44457;BME280;30159;49.316;8.558;2023-03-23T10:08:47;99855.34;;;16.78;83.13
44457;BME280;30159;49.316;8.558;2023-03-23T10:11:23;99853.44;;;16.99;84.01
44457;BME280;30159;49.316;8.558;2023-03-23T10:14:09;99845.63;;;17.22;82.27
44457;BME280;30159;49.316;8.558;2023-03-23T10:16:40;99800.28;;;17.05;81.93
44457;BME280;30159;49.316;8.558;2023-03-23T10:19:12;99841.56;;;17.41;81.69
44457;BME280;30159;49.316;8.558;2023-03-23T10:21:41;99797.16;;;17.40;80.44
44457;BME280;30159;49.316;8.558;2023-03-23T10:24:15;99792.72;;;17.48;79.08
44457;BME280;30159;49.316;8.558;2023-03-23T10:26:48;99830.59;;;17.74;79.37
44457;BME280;30159;49.316;8.558;2023-03-23T10:29:22;99835.81;;;17.79;79.58
44457;BME280;30159;49.316;8.558;2023-03-23T10:31:52;99800.81;;;17.44;80.52
44457;BME280;30159;49.316;8.558;2023-03-23T10:34:25;99740.34;;;17.18;79.88
44457;BME280;30159;49.316;8.558;2023-03-23T10:36:59;99831.47;;;17.78;79.90
44457;BME280;30159;49.316;8.558;2023-03-23T10:39:31;99837.75;;;17.79;80.38
44457;BME280;30159;49.316;8.558;2023-03-23T10:42:00;99834.84;;;17.26;81.93
44457;BME280;30159;49.316;8.558;2023-03-23T10:44:32;99832.13;;;17.14;82.99
44457;BME280;30159;49.316;8.558;2023-03-23T10:47:01;99831.91;;;17.31;82.73
44457;BME280;30159;49.316;8.558;2023-03-23T10:49:34;99845.44;;;17.52;83.35
44457;BME280;30159;49.316;8.558;2023-03-23T10:52:06;99832.28;;;17.54;84.39
44457;BME280;30159;49.316;8.558;2023-03-23T10:54:39;99843.28;;;17.45;85.64
44457;BME280;30159;49.316;8.558;2023-03-23T10:57:21;99851.69;;;17.40;85.60
44457;BME280;30159;49.316;8.558;2023-03-23T10:59:48;99845.75;;;17.26;89.32
44457;BME280;30159;49.316;8.558;2023-03-23T11:02:17;99838.84;;;17.28;89.79
44457;BME280;30159;49.316;8.558;2023-03-23T11:04:56;99817.41;;;16.94;89.91
44457;BME280;30159;49.316;8.558;2023-03-23T11:07:28;99857.34;;;17.23;90.77
44457;BME280;30159;49.316;8.558;2023-03-23T11:10:03;99834.63;;;17.19;89.74
44457;BME280;30159;49.316;8.558;2023-03-23T11:12:33;99858.69;;;17.17;89.55
44457;BME280;30159;49.316;8.558;2023-03-23T11:15:09;99860.19;;;16.93;89.73
44457;BME280;30159;49.316;8.558;2023-03-23T11:17:41;99858.75;;;16.54;91.77
44457;BME280;30159;49.316;8.558;2023-03-23T11:20:12;99801.84;;;15.98;94.31
44457;BME280;30159;49.316;8.558;2023-03-23T11:22:42;99877.00;;;16.32;95.50
44457;BME280;30159;49.316;8.558;2023-03-23T11:25:13;99866.06;;;16.62;96.56
44457;BME280;30159;49.316;8.558;2023-03-23T11:27:41;99867.06;;;17.12;91.65
44457;BME280;30159;49.316;8.558;2023-03-23T11:30:14;99866.63;;;17.22;89.28
44457;BME280;30159;49.316;8.558;2023-03-23T11:32:46;99857.28;;;17.44;89.07
44457;BME280;30159;49.316;8.558;2023-03-23T11:35:17;99850.34;;;17.59;85.39
44457;BME280;30159;49.316;8.558;2023-03-23T11:37:47;99853.53;;;17.48;86.74
44457;BME280;30159;49.316;8.558;2023-03-23T11:40:18;99845.72;;;17.72;86.34
44457;BME280;30159;49.316;8.558;2023-03-23T11:42:47;99853.91;;;17.84;85.61
44457;BME280;30159;49.316;8.558;2023-03-23T11:45:18;99853.28;;;17.78;85.35
44457;BME280;30159;49.316;8.558;2023-03-23T11:47:53;99860.47;;;17.70;86.85
44457;BME280;30159;49.316;8.558;2023-03-23T11:50:24;99850.13;;;17.64;85.83
44457;BME280;30159;49.316;8.558;2023-03-23T11:52:55;99852.47;;;17.28;88.12
44457;BME280;30159;49.316;8.558;2023-03-23T11:55:28;99850.72;;;17.12;89.80
44457;BME280;30159;49.316;8.558;2023-03-23T11:58:00;99855.75;;;17.22;89.11
44457;BME280;30159;49.316;8.558;2023-03-23T12:00:28;99844.47;;;17.11;89.58
44457;BME280;30159;49.316;8.558;2023-03-23T12:03:14;99852.16;;;16.76;89.85
44457;BME280;30159;49.316;8.558;2023-03-23T12:05:49;99836.22;;;16.65;90.88
44457;BME280;30159;49.316;8.558;2023-03-23T12:08:33;99837.97;;;16.49;90.01
44457;BME280;30159;49.316;8.558;2023-03-23T12:11:11;99690.91;;;15.32;89.30
44457;BME280;30159;49.316;8.558;2023-03-23T12:13:50;99841.75;;;16.36;89.84
44457;BME280;30159;49.316;8.558;2023-03-23T12:16:28;99836.31;;;16.36;89.84
44457;BME280;30159;49.316;8.558;2023-03-23T12:19:03;99832.38;;;16.46;89.35
44457;BME280;30159;49.316;8.558;2023-03-23T12:21:38;99837.72;;;16.42;90.02
44457;BME280;30159;49.316;8.558;2023-03-23T12:24:14;99836.50;;;16.52;89.29
44457;BME280;30159;49.316;8.558;2023-03-23T12:26:47;99824.81;;;16.30;87.79
44457;BME280;30159;49.316;8.558;2023-03-23T12:29:39;99829.28;;;16.35;88.15
44457;BME280;30159;49.316;8.558;2023-03-23T12:32:28;99824.56;;;16.44;88.63
44457;BME280;30159;49.316;8.558;2023-03-23T12:35:04;99825.41;;;16.36;88.97
44457;BME280;30159;49.316;8.558;2023-03-23T12:37:45;99815.72;;;16.26;88.99
44457;BME280;30159;49.316;8.558;2023-03-23T12:40:25;99813.94;;;16.30;89.27
44457;BME280;30159;49.316;8.558;2023-03-23T12:42:59;99808.22;;;16.23;88.92
44457;BME280;30159;49.316;8.558;2023-03-23T12:45:48;99809.34;;;16.43;88.16
44457;BME280;30159;49.316;8.558;2023-03-23T12:48:21;99802.19;;;16.38;87.75
44457;BME280;30159;49.316;8.558;2023-03-23T12:51:06;99795.88;;;16.26;88.44
44457;BME280;30159;49.316;8.558;2023-03-23T12:53:36;99789.03;;;16.40;88.08
44457;BME280;30159;49.316;8.558;2023-03-23T12:56:12;99754.34;;;16.16;87.24
44457;BME280;30159;49.316;8.558;2023-03-23T12:58:44;99791.53;;;16.46;87.22
44457;BME280;30159;49.316;8.558;2023-03-23T13:01:14;99800.84;;;16.44;86.52
44457;BME280;30159;49.316;8.558;2023-03-23T13:03:49;99807.88;;;16.46;86.92
44457;BME280;30159;49.316;8.558;2023-03-23T13:06:23;99797.81;;;16.46;87.52
44457;BME280;30159;49.316;8.558;2023-03-23T13:08:54;99757.91;;;16.08;87.71
44457;BME280;30159;49.316;8.558;2023-03-23T13:11:27;99778.16;;;16.40;87.63
44457;BME280;30159;49.316;8.558;2023-03-23T13:14:08;99759.47;;;16.51;86.74
44457;BME280;30159;49.316;8.558;2023-03-23T13:16:42;99769.63;;;16.63;85.08